Terminal Aerodrome Forecast
Issued by NWS

Home | Current Version | Previous Version | Text Only | Print | Product List | Glossary On
Versions: 1 2 3 4 5 6 7 8 9 10 11 12 13 14 15
000
FTUS43 KFGF 261600 AAA
TAFTVF
TAF AMD
KTVF 261635Z 2617/2712 25012G20KT P6SM FEW030
     FM261800 27016G24KT P6SM BKN035
     FM262100 26016G23KT P6SM VCSH BKN050
     FM270100 25014KT P6SM BKN050
     FM271100 33011KT P6SM OVC025
      AMD LTD TO CLD VIS AND WIND=

USA.gov is the U.S. government's official web portal to all federal, state and local government web resources and services.